Kohat Weather



Kohat's Current Weather

Temprature 13o haze

haze

Rain: 0 %

Min Temprature13o
Max Temprature13o
Humidity43
Wind Speed2.1 m/h
Sun Rise07:14:07
Sun Set17:39:11
Current Time: 27-Jan-2020 18:26:41
Lat/Lon: 33.58, 71.45




Kohat's Geo Location



Kohat's Weather Forecast

Time Overall Temp Min Temp Max Temp Humidity Wind Speed Rain
27-Jan-2020 (Mon)
20:00:00 overcast clouds 10.440 10.440 11.590 42 1.41 m/h 0 %
23:00:00 overcast clouds 9.200 9.200 10.060 56 1.01 m/h 0 %
28-Jan-2020 (Tue)
02:00:00 overcast clouds 10.980 10.980 11.560 48 3.16 m/h 0 %
05:00:00 overcast clouds 10.330 10.330 10.620 53 2.03 m/h 0 %
08:00:00 overcast clouds 9.230 9.230 9.230 66 0.95 m/h 0 %
11:00:00 overcast clouds 13.230 13.230 13.230 50 0.47 m/h 0 %
14:00:00 clear sky 15.730 15.730 15.730 31 1.42 m/h 0 %
17:00:00 broken clouds 14.650 14.650 14.650 29 2.71 m/h 0 %
20:00:00 overcast clouds 10.130 10.130 10.130 73 2.15 m/h 0 %
23:00:00 overcast clouds 9.320 9.320 9.320 78 0.73 m/h 0 %
29-Jan-2020 (Wed)
02:00:00 overcast clouds 9.730 9.730 9.730 75 1.49 m/h 0 %
05:00:00 overcast clouds 7.420 7.420 7.420 85 0.81 m/h 0 %
08:00:00 broken clouds 8.490 8.490 8.490 82 0.61 m/h 0 %
11:00:00 scattered clouds 12.760 12.760 12.760 53 0.67 m/h 0 %
14:00:00 few clouds 14.860 14.860 14.860 35 0.98 m/h 0 %
17:00:00 few clouds 12.130 12.130 12.130 62 4.19 m/h 0 %
20:00:00 clear sky 9.250 9.250 9.250 76 0.34 m/h 0 %
23:00:00 clear sky 8.600 8.600 8.600 73 1.32 m/h 0 %
30-Jan-2020 (Thu)
02:00:00 clear sky 7.800 7.800 7.800 63 1.08 m/h 0 %
05:00:00 few clouds 7.320 7.320 7.320 45 1.07 m/h 0 %
08:00:00 clear sky 7.890 7.890 7.890 41 1.02 m/h 0 %
11:00:00 clear sky 13.930 13.930 13.930 21 0.44 m/h 0 %
14:00:00 overcast clouds 15.950 15.950 15.950 21 0.99 m/h 0 %
17:00:00 broken clouds 14.910 14.910 14.910 34 1.44 m/h 0 %
20:00:00 scattered clouds 10.590 10.590 10.590 50 0.68 m/h 0 %
23:00:00 scattered clouds 9.460 9.460 9.460 54 0.38 m/h 0 %
31-Jan-2020 (Fri)
02:00:00 broken clouds 8.380 8.380 8.380 52 0.46 m/h 0 %
05:00:00 scattered clouds 7.420 7.420 7.420 50 0.55 m/h 0 %
08:00:00 overcast clouds 8.980 8.980 8.980 47 0.54 m/h 0 %
11:00:00 overcast clouds 14.090 14.090 14.090 27 0.17 m/h 0 %
14:00:00 overcast clouds 15.820 15.820 15.820 24 0.43 m/h 0 %
17:00:00 overcast clouds 14.960 14.960 14.960 33 1.48 m/h 0 %
20:00:00 clear sky 10.230 10.230 10.230 44 0.38 m/h 0 %
23:00:00 clear sky 9.040 9.040 9.040 45 0.55 m/h 0 %
01-Feb-2020 (Sat)
02:00:00 clear sky 8.060 8.060 8.060 47 0.67 m/h 0 %
05:00:00 clear sky 7.030 7.030 7.030 48 0.89 m/h 0 %
08:00:00 clear sky 8.130 8.130 8.130 49 0.88 m/h 0 %
11:00:00 clear sky 15.040 15.040 15.040 28 0.53 m/h 0 %
14:00:00 clear sky 17.230 17.230 17.230 24 0.67 m/h 0 %
17:00:00 clear sky 16.040 16.040 16.040 36 0.58 m/h 0 %

Famous Cities (61)